sensor_id;sensor_type;location;lat;lon;timestamp;P1;durP1;ratioP1;P2;durP2;ratioP2
21681;SDS011;11002;48.256;10.084;2022-10-15T00:00:29;1.00;;;0.40;;
21681;SDS011;11002;48.256;10.084;2022-10-15T00:02:56;0.40;;;0.40;;
21681;SDS011;11002;48.256;10.084;2022-10-15T00:05:24;0.35;;;0.30;;
21681;SDS011;11002;48.256;10.084;2022-10-15T00:07:51;0.60;;;0.50;;
21681;SDS011;11002;48.256;10.084;2022-10-15T00:10:20;0.38;;;0.38;;
21681;SDS011;11002;48.256;10.084;2022-10-15T00:12:48;0.55;;;0.50;;
21681;SDS011;11002;48.256;10.084;2022-10-15T00:15:15;0.30;;;0.30;;
21681;SDS011;11002;48.256;10.084;2022-10-15T00:17:43;0.50;;;0.40;;
21681;SDS011;11002;48.256;10.084;2022-10-15T00:20:10;0.65;;;0.50;;
21681;SDS011;11002;48.256;10.084;2022-10-15T00:22:38;0.50;;;0.50;;
21681;SDS011;11002;48.256;10.084;2022-10-15T00:25:06;0.40;;;0.40;;
21681;SDS011;11002;48.256;10.084;2022-10-15T00:27:36;0.30;;;0.30;;
21681;SDS011;11002;48.256;10.084;2022-10-15T00:30:05;0.60;;;0.38;;
21681;SDS011;11002;48.256;10.084;2022-10-15T00:32:33;0.32;;;0.30;;
21681;SDS011;11002;48.256;10.084;2022-10-15T00:35:04;0.40;;;0.40;;
21681;SDS011;11002;48.256;10.084;2022-10-15T00:37:31;0.93;;;0.30;;
21681;SDS011;11002;48.256;10.084;2022-10-15T00:39:59;0.40;;;0.40;;
21681;SDS011;11002;48.256;10.084;2022-10-15T00:42:26;0.60;;;0.47;;
21681;SDS011;11002;48.256;10.084;2022-10-15T00:44:56;0.35;;;0.35;;
21681;SDS011;11002;48.256;10.084;2022-10-15T00:47:29;0.50;;;0.50;;
21681;SDS011;11002;48.256;10.084;2022-10-15T00:50:03;0.30;;;0.30;;
21681;SDS011;11002;48.256;10.084;2022-10-15T00:52:36;0.32;;;0.32;;
21681;SDS011;11002;48.256;10.084;2022-10-15T00:55:09;0.30;;;0.30;;
21681;SDS011;11002;48.256;10.084;2022-10-15T00:57:39;0.73;;;0.63;;
21681;SDS011;11002;48.256;10.084;2022-10-15T01:00:10;0.63;;;0.40;;
21681;SDS011;11002;48.256;10.084;2022-10-15T01:02:41;0.30;;;0.20;;
21681;SDS011;11002;48.256;10.084;2022-10-15T01:05:09;0.30;;;0.30;;
21681;SDS011;11002;48.256;10.084;2022-10-15T01:07:38;0.25;;;0.25;;
21681;SDS011;11002;48.256;10.084;2022-10-15T01:10:06;0.30;;;0.30;;
21681;SDS011;11002;48.256;10.084;2022-10-15T01:12:44;0.20;;;0.20;;
21681;SDS011;11002;48.256;10.084;2022-10-15T01:15:21;0.55;;;0.50;;
21681;SDS011;11002;48.256;10.084;2022-10-15T01:17:53;0.38;;;0.38;;
21681;SDS011;11002;48.256;10.084;2022-10-15T01:20:36;0.40;;;0.40;;
21681;SDS011;11002;48.256;10.084;2022-10-15T01:23:20;0.30;;;0.30;;
21681;SDS011;11002;48.256;10.084;2022-10-15T01:26:21;0.30;;;0.30;;
21681;SDS011;11002;48.256;10.084;2022-10-15T01:29:04;0.40;;;0.30;;
21681;SDS011;11002;48.256;10.084;2022-10-15T01:31:42;0.30;;;0.30;;
21681;SDS011;11002;48.256;10.084;2022-10-15T01:34:17;0.40;;;0.40;;
21681;SDS011;11002;48.256;10.084;2022-10-15T01:36:50;0.28;;;0.28;;
21681;SDS011;11002;48.256;10.084;2022-10-15T01:39:22;0.38;;;0.30;;
21681;SDS011;11002;48.256;10.084;2022-10-15T01:41:55;0.38;;;0.38;;
21681;SDS011;11002;48.256;10.084;2022-10-15T01:44:28;0.20;;;0.20;;
21681;SDS011;11002;48.256;10.084;2022-10-15T01:47:15;0.20;;;0.20;;
21681;SDS011;11002;48.256;10.084;2022-10-15T01:49:45;0.40;;;0.40;;
21681;SDS011;11002;48.256;10.084;2022-10-15T01:52:15;0.47;;;0.20;;
21681;SDS011;11002;48.256;10.084;2022-10-15T01:54:46;0.30;;;0.30;;
21681;SDS011;11002;48.256;10.084;2022-10-15T01:57:16;0.75;;;0.40;;
21681;SDS011;11002;48.256;10.084;2022-10-15T01:59:45;0.38;;;0.38;;
21681;SDS011;11002;48.256;10.084;2022-10-15T02:02:15;0.40;;;0.32;;
21681;SDS011;11002;48.256;10.084;2022-10-15T02:04:43;0.30;;;0.30;;
21681;SDS011;11002;48.256;10.084;2022-10-15T02:07:14;0.68;;;0.30;;
21681;SDS011;11002;48.256;10.084;2022-10-15T02:09:51;0.22;;;0.22;;
21681;SDS011;11002;48.256;10.084;2022-10-15T02:12:27;0.30;;;0.30;;
21681;SDS011;11002;48.256;10.084;2022-10-15T02:15:04;0.50;;;0.30;;
21681;SDS011;11002;48.256;10.084;2022-10-15T02:17:39;0.30;;;0.30;;
21681;SDS011;11002;48.256;10.084;2022-10-15T02:22:41;0.30;;;0.20;;
21681;SDS011;11002;48.256;10.084;2022-10-15T02:25:15;0.43;;;0.32;;
21681;SDS011;11002;48.256;10.084;2022-10-15T02:27:46;0.45;;;0.30;;
21681;SDS011;11002;48.256;10.084;2022-10-15T02:30:15;0.57;;;0.40;;
21681;SDS011;11002;48.256;10.084;2022-10-15T02:32:45;0.10;;;0.10;;
21681;SDS011;11002;48.256;10.084;2022-10-15T02:35:19;0.20;;;0.20;;
21681;SDS011;11002;48.256;10.084;2022-10-15T02:37:48;0.30;;;0.30;;
21681;SDS011;11002;48.256;10.084;2022-10-15T02:40:18;0.20;;;0.20;;
21681;SDS011;11002;48.256;10.084;2022-10-15T02:42:52;0.28;;;0.28;;
21681;SDS011;11002;48.256;10.084;2022-10-15T02:45:20;0.20;;;0.20;;
21681;SDS011;11002;48.256;10.084;2022-10-15T02:47:49;0.20;;;0.20;;
21681;SDS011;11002;48.256;10.084;2022-10-15T02:50:17;0.25;;;0.20;;
21681;SDS011;11002;48.256;10.084;2022-10-15T02:52:44;0.30;;;0.30;;
21681;SDS011;11002;48.256;10.084;2022-10-15T02:55:12;0.25;;;0.25;;
21681;SDS011;11002;48.256;10.084;2022-10-15T02:57:39;0.22;;;0.22;;
21681;SDS011;11002;48.256;10.084;2022-10-15T03:00:08;0.15;;;0.15;;
21681;SDS011;11002;48.256;10.084;2022-10-15T03:02:38;0.10;;;0.10;;
21681;SDS011;11002;48.256;10.084;2022-10-15T03:05:07;0.32;;;0.20;;
21681;SDS011;11002;48.256;10.084;2022-10-15T03:07:35;0.38;;;0.30;;
21681;SDS011;11002;48.256;10.084;2022-10-15T03:10:03;0.10;;;0.10;;
21681;SDS011;11002;48.256;10.084;2022-10-15T03:12:31;0.20;;;0.20;;
21681;SDS011;11002;48.256;10.084;2022-10-15T03:14:59;0.15;;;0.15;;
21681;SDS011;11002;48.256;10.084;2022-10-15T03:17:27;0.25;;;0.25;;
21681;SDS011;11002;48.256;10.084;2022-10-15T03:19:54;0.10;;;0.10;;
21681;SDS011;11002;48.256;10.084;2022-10-15T03:22:23;0.20;;;0.20;;
21681;SDS011;11002;48.256;10.084;2022-10-15T03:24:52;0.20;;;0.20;;
21681;SDS011;11002;48.256;10.084;2022-10-15T03:27:25;0.22;;;0.20;;
21681;SDS011;11002;48.256;10.084;2022-10-15T03:29:53;0.10;;;0.10;;
21681;SDS011;11002;48.256;10.084;2022-10-15T03:32:22;0.30;;;0.20;;
21681;SDS011;11002;48.256;10.084;2022-10-15T03:34:50;0.35;;;0.20;;
21681;SDS011;11002;48.256;10.084;2022-10-15T03:37:19;0.30;;;0.20;;
21681;SDS011;11002;48.256;10.084;2022-10-15T03:39:47;0.30;;;0.22;;
21681;SDS011;11002;48.256;10.084;2022-10-15T03:42:17;0.10;;;0.10;;
21681;SDS011;11002;48.256;10.084;2022-10-15T03:44:44;0.20;;;0.20;;
21681;SDS011;11002;48.256;10.084;2022-10-15T03:47:16;0.20;;;0.20;;
21681;SDS011;11002;48.256;10.084;2022-10-15T03:49:47;0.15;;;0.15;;
21681;SDS011;11002;48.256;10.084;2022-10-15T03:52:15;0.03;;;0.03;;
21681;SDS011;11002;48.256;10.084;2022-10-15T03:54:45;0.20;;;0.20;;
21681;SDS011;11002;48.256;10.084;2022-10-15T03:57:17;0.25;;;0.17;;
21681;SDS011;11002;48.256;10.084;2022-10-15T03:59:49;0.30;;;0.30;;
21681;SDS011;11002;48.256;10.084;2022-10-15T04:02:18;0.10;;;0.10;;
21681;SDS011;11002;48.256;10.084;2022-10-15T04:04:45;0.20;;;0.20;;
21681;SDS011;11002;48.256;10.084;2022-10-15T04:07:13;0.20;;;0.20;;
21681;SDS011;11002;48.256;10.084;2022-10-15T04:09:40;0.10;;;0.10;;
21681;SDS011;11002;48.256;10.084;2022-10-15T04:12:34;0.30;;;0.30;;
21681;SDS011;11002;48.256;10.084;2022-10-15T04:15:01;0.20;;;0.20;;
21681;SDS011;11002;48.256;10.084;2022-10-15T04:17:29;0.10;;;0.10;;
21681;SDS011;11002;48.256;10.084;2022-10-15T04:19:56;0.17;;;0.17;;
21681;SDS011;11002;48.256;10.084;2022-10-15T04:22:25;0.10;;;0.10;;
21681;SDS011;11002;48.256;10.084;2022-10-15T04:24:57;0.17;;;0.17;;
21681;SDS011;11002;48.256;10.084;2022-10-15T04:27:26;0.10;;;0.10;;
21681;SDS011;11002;48.256;10.084;2022-10-15T04:30:05;0.32;;;0.25;;
21681;SDS011;11002;48.256;10.084;2022-10-15T04:32:36;0.10;;;0.10;;
21681;SDS011;11002;48.256;10.084;2022-10-15T04:35:03;0.10;;;0.10;;
21681;SDS011;11002;48.256;10.084;2022-10-15T04:37:47;0.10;;;0.10;;
21681;SDS011;11002;48.256;10.084;2022-10-15T04:40:15;0.10;;;0.10;;
21681;SDS011;11002;48.256;10.084;2022-10-15T04:42:43;0.10;;;0.10;;
21681;SDS011;11002;48.256;10.084;2022-10-15T04:45:12;0.20;;;0.20;;
21681;SDS011;11002;48.256;10.084;2022-10-15T04:47:40;0.10;;;0.10;;
21681;SDS011;11002;48.256;10.084;2022-10-15T04:50:10;0.10;;;0.10;;
21681;SDS011;11002;48.256;10.084;2022-10-15T04:53:16;0.13;;;0.13;;
21681;SDS011;11002;48.256;10.084;2022-10-15T04:55:48;0.10;;;0.10;;
21681;SDS011;11002;48.256;10.084;2022-10-15T04:58:15;0.10;;;0.10;;
21681;SDS011;11002;48.256;10.084;2022-10-15T05:00:44;1.15;;;0.10;;
21681;SDS011;11002;48.256;10.084;2022-10-15T05:03:26;0.10;;;0.10;;
21681;SDS011;11002;48.256;10.084;2022-10-15T05:06:01;0.13;;;0.13;;
21681;SDS011;11002;48.256;10.084;2022-10-15T05:08:30;0.10;;;0.10;;
21681;SDS011;11002;48.256;10.084;2022-10-15T05:11:09;0.10;;;0.10;;
21681;SDS011;11002;48.256;10.084;2022-10-15T05:13:38;0.10;;;0.10;;
21681;SDS011;11002;48.256;10.084;2022-10-15T05:16:09;0.10;;;0.10;;
21681;SDS011;11002;48.256;10.084;2022-10-15T05:18:37;0.80;;;0.13;;
21681;SDS011;11002;48.256;10.084;2022-10-15T05:21:05;0.00;;;0.00;;
21681;SDS011;11002;48.256;10.084;2022-10-15T05:23:34;0.20;;;0.20;;
21681;SDS011;11002;48.256;10.084;2022-10-15T05:26:25;0.10;;;0.10;;
21681;SDS011;11002;48.256;10.084;2022-10-15T05:28:54;0.25;;;0.20;;
21681;SDS011;11002;48.256;10.084;2022-10-15T05:31:28;0.17;;;0.17;;
21681;SDS011;11002;48.256;10.084;2022-10-15T05:34:07;0.20;;;0.10;;
21681;SDS011;11002;48.256;10.084;2022-10-15T05:36:57;0.13;;;0.10;;
21681;SDS011;11002;48.256;10.084;2022-10-15T05:39:25;0.10;;;0.10;;
21681;SDS011;11002;48.256;10.084;2022-10-15T05:41:53;0.10;;;0.10;;
21681;SDS011;11002;48.256;10.084;2022-10-15T05:44:30;0.52;;;0.10;;
21681;SDS011;11002;48.256;10.084;2022-10-15T05:46:59;0.20;;;0.20;;
21681;SDS011;11002;48.256;10.084;2022-10-15T05:49:27;0.00;;;0.00;;
21681;SDS011;11002;48.256;10.084;2022-10-15T05:52:02;0.10;;;0.10;;
21681;SDS011;11002;48.256;10.084;2022-10-15T05:54:53;0.10;;;0.10;;
21681;SDS011;11002;48.256;10.084;2022-10-15T05:57:20;0.00;;;0.00;;
21681;SDS011;11002;48.256;10.084;2022-10-15T05:59:48;0.30;;;0.20;;
21681;SDS011;11002;48.256;10.084;2022-10-15T06:02:16;0.10;;;0.10;;
21681;SDS011;11002;48.256;10.084;2022-10-15T06:04:44;0.10;;;0.10;;
21681;SDS011;11002;48.256;10.084;2022-10-15T06:07:13;0.15;;;0.10;;
21681;SDS011;11002;48.256;10.084;2022-10-15T06:09:41;0.10;;;0.10;;
21681;SDS011;11002;48.256;10.084;2022-10-15T06:12:08;0.00;;;0.00;;
21681;SDS011;11002;48.256;10.084;2022-10-15T06:14:35;0.15;;;0.15;;
21681;SDS011;11002;48.256;10.084;2022-10-15T06:17:05;0.10;;;0.10;;
21681;SDS011;11002;48.256;10.084;2022-10-15T06:19:34;0.13;;;0.13;;
21681;SDS011;11002;48.256;10.084;2022-10-15T06:22:01;0.10;;;0.10;;
21681;SDS011;11002;48.256;10.084;2022-10-15T06:24:28;0.10;;;0.10;;
21681;SDS011;11002;48.256;10.084;2022-10-15T06:26:57;0.10;;;0.10;;
21681;SDS011;11002;48.256;10.084;2022-10-15T06:29:24;0.43;;;0.10;;
21681;SDS011;11002;48.256;10.084;2022-10-15T06:31:53;0.10;;;0.10;;
21681;SDS011;11002;48.256;10.084;2022-10-15T06:34:20;0.10;;;0.10;;
21681;SDS011;11002;48.256;10.084;2022-10-15T06:36:49;0.00;;;0.00;;
21681;SDS011;11002;48.256;10.084;2022-10-15T06:39:16;0.00;;;0.00;;
21681;SDS011;11002;48.256;10.084;2022-10-15T06:41:44;0.08;;;0.08;;
21681;SDS011;11002;48.256;10.084;2022-10-15T06:44:11;0.10;;;0.10;;
21681;SDS011;11002;48.256;10.084;2022-10-15T06:46:38;0.52;;;0.20;;
21681;SDS011;11002;48.256;10.084;2022-10-15T06:49:05;0.00;;;0.00;;
21681;SDS011;11002;48.256;10.084;2022-10-15T06:51:33;0.00;;;0.00;;
21681;SDS011;11002;48.256;10.084;2022-10-15T06:54:03;0.10;;;0.10;;
21681;SDS011;11002;48.256;10.084;2022-10-15T06:56:30;0.10;;;0.10;;
21681;SDS011;11002;48.256;10.084;2022-10-15T06:58:58;0.10;;;0.10;;
21681;SDS011;11002;48.256;10.084;2022-10-15T07:01:25;0.10;;;0.10;;
21681;SDS011;11002;48.256;10.084;2022-10-15T07:03:53;0.10;;;0.10;;
21681;SDS011;11002;48.256;10.084;2022-10-15T07:06:20;0.10;;;0.10;;
21681;SDS011;11002;48.256;10.084;2022-10-15T07:08:47;0.00;;;0.00;;
21681;SDS011;11002;48.256;10.084;2022-10-15T07:11:16;0.10;;;0.10;;
21681;SDS011;11002;48.256;10.084;2022-10-15T07:13:43;0.05;;;0.05;;
21681;SDS011;11002;48.256;10.084;2022-10-15T07:16:11;0.10;;;0.00;;
21681;SDS011;11002;48.256;10.084;2022-10-15T07:18:38;0.10;;;0.10;;
21681;SDS011;11002;48.256;10.084;2022-10-15T07:21:06;0.10;;;0.00;;
21681;SDS011;11002;48.256;10.084;2022-10-15T07:23:34;0.08;;;0.08;;
21681;SDS011;11002;48.256;10.084;2022-10-15T07:26:01;0.40;;;0.10;;
21681;SDS011;11002;48.256;10.084;2022-10-15T07:28:30;0.20;;;0.10;;
21681;SDS011;11002;48.256;10.084;2022-10-15T07:30:59;0.20;;;0.10;;
21681;SDS011;11002;48.256;10.084;2022-10-15T07:33:27;0.10;;;0.10;;
21681;SDS011;11002;48.256;10.084;2022-10-15T07:35:57;0.20;;;0.20;;
21681;SDS011;11002;48.256;10.084;2022-10-15T07:38:27;0.00;;;0.00;;
21681;SDS011;11002;48.256;10.084;2022-10-15T07:40:56;0.05;;;0.05;;
21681;SDS011;11002;48.256;10.084;2022-10-15T07:43:25;0.10;;;0.10;;
21681;SDS011;11002;48.256;10.084;2022-10-15T07:45:54;0.10;;;0.10;;
21681;SDS011;11002;48.256;10.084;2022-10-15T07:48:21;0.10;;;0.10;;
21681;SDS011;11002;48.256;10.084;2022-10-15T07:50:52;0.10;;;0.10;;
21681;SDS011;11002;48.256;10.084;2022-10-15T07:53:20;0.10;;;0.10;;
21681;SDS011;11002;48.256;10.084;2022-10-15T07:55:52;0.77;;;0.10;;
21681;SDS011;11002;48.256;10.084;2022-10-15T07:58:19;0.10;;;0.10;;
21681;SDS011;11002;48.256;10.084;2022-10-15T08:00:47;0.17;;;0.10;;
21681;SDS011;11002;48.256;10.084;2022-10-15T08:03:15;0.00;;;0.00;;
21681;SDS011;11002;48.256;10.084;2022-10-15T08:05:43;0.10;;;0.10;;
21681;SDS011;11002;48.256;10.084;2022-10-15T08:08:10;0.20;;;0.03;;
21681;SDS011;11002;48.256;10.084;2022-10-15T08:10:38;0.52;;;0.10;;
21681;SDS011;11002;48.256;10.084;2022-10-15T08:13:05;0.10;;;0.10;;
21681;SDS011;11002;48.256;10.084;2022-10-15T08:15:32;0.32;;;0.10;;
21681;SDS011;11002;48.256;10.084;2022-10-15T08:18:00;1.02;;;0.20;;
21681;SDS011;11002;48.256;10.084;2022-10-15T08:20:28;0.30;;;0.10;;
21681;SDS011;11002;48.256;10.084;2022-10-15T08:22:56;0.10;;;0.10;;
21681;SDS011;11002;48.256;10.084;2022-10-15T08:25:23;0.10;;;0.10;;
21681;SDS011;11002;48.256;10.084;2022-10-15T08:27:51;0.10;;;0.10;;
21681;SDS011;11002;48.256;10.084;2022-10-15T08:30:19;0.00;;;0.00;;
21681;SDS011;11002;48.256;10.084;2022-10-15T08:32:46;0.35;;;0.00;;
21681;SDS011;11002;48.256;10.084;2022-10-15T08:35:13;0.00;;;0.00;;
21681;SDS011;11002;48.256;10.084;2022-10-15T08:37:42;0.10;;;0.10;;
21681;SDS011;11002;48.256;10.084;2022-10-15T08:40:10;0.25;;;0.08;;
21681;SDS011;11002;48.256;10.084;2022-10-15T08:42:40;0.13;;;0.13;;
21681;SDS011;11002;48.256;10.084;2022-10-15T08:45:11;0.10;;;0.10;;
21681;SDS011;11002;48.256;10.084;2022-10-15T08:47:45;0.55;;;0.10;;
21681;SDS011;11002;48.256;10.084;2022-10-15T08:50:19;0.20;;;0.10;;
21681;SDS011;11002;48.256;10.084;2022-10-15T08:52:54;0.10;;;0.10;;
21681;SDS011;11002;48.256;10.084;2022-10-15T08:55:25;0.52;;;0.00;;
21681;SDS011;11002;48.256;10.084;2022-10-15T08:57:58;0.20;;;0.17;;
21681;SDS011;11002;48.256;10.084;2022-10-15T09:00:36;0.10;;;0.10;;
21681;SDS011;11002;48.256;10.084;2022-10-15T09:03:10;0.08;;;0.08;;
21681;SDS011;11002;48.256;10.084;2022-10-15T09:05:51;0.08;;;0.08;;
21681;SDS011;11002;48.256;10.084;2022-10-15T09:08:27;1.08;;;0.10;;
21681;SDS011;11002;48.256;10.084;2022-10-15T09:10:58;0.00;;;0.00;;
21681;SDS011;11002;48.256;10.084;2022-10-15T09:13:30;0.85;;;0.10;;
21681;SDS011;11002;48.256;10.084;2022-10-15T09:16:00;0.75;;;0.10;;
21681;SDS011;11002;48.256;10.084;2022-10-15T09:18:31;0.03;;;0.03;;
21681;SDS011;11002;48.256;10.084;2022-10-15T09:21:00;0.10;;;0.10;;
21681;SDS011;11002;48.256;10.084;2022-10-15T09:23:32;0.40;;;0.10;;
21681;SDS011;11002;48.256;10.084;2022-10-15T09:26:01;0.25;;;0.25;;
21681;SDS011;11002;48.256;10.084;2022-10-15T09:28:36;0.73;;;0.10;;
21681;SDS011;11002;48.256;10.084;2022-10-15T09:31:11;0.88;;;0.20;;
21681;SDS011;11002;48.256;10.084;2022-10-15T09:33:44;0.85;;;0.25;;
21681;SDS011;11002;48.256;10.084;2022-10-15T09:36:28;0.73;;;0.20;;
21681;SDS011;11002;48.256;10.084;2022-10-15T09:39:07;0.00;;;0.00;;
21681;SDS011;11002;48.256;10.084;2022-10-15T09:41:49;0.30;;;0.20;;
21681;SDS011;11002;48.256;10.084;2022-10-15T09:44:25;0.10;;;0.10;;
21681;SDS011;11002;48.256;10.084;2022-10-15T09:46:57;0.40;;;0.10;;
21681;SDS011;11002;48.256;10.084;2022-10-15T09:49:25;1.65;;;0.10;;
21681;SDS011;11002;48.256;10.084;2022-10-15T09:51:55;0.20;;;0.20;;
21681;SDS011;11002;48.256;10.084;2022-10-15T09:54:31;0.82;;;0.10;;
21681;SDS011;11002;48.256;10.084;2022-10-15T09:57:06;2.90;;;0.13;;
21681;SDS011;11002;48.256;10.084;2022-10-15T09:59:35;3.35;;;0.13;;
21681;SDS011;11002;48.256;10.084;2022-10-15T10:02:08;2.55;;;0.22;;
21681;SDS011;11002;48.256;10.084;2022-10-15T10:04:44;2.28;;;0.20;;
21681;SDS011;11002;48.256;10.084;2022-10-15T10:07:24;1.40;;;0.20;;
21681;SDS011;11002;48.256;10.084;2022-10-15T10:09:57;1.83;;;0.10;;
21681;SDS011;11002;48.256;10.084;2022-10-15T10:12:27;2.10;;;0.30;;
21681;SDS011;11002;48.256;10.084;2022-10-15T10:14:58;1.05;;;0.10;;
21681;SDS011;11002;48.256;10.084;2022-10-15T10:17:29;2.55;;;0.22;;
21681;SDS011;11002;48.256;10.084;2022-10-15T10:22:46;1.48;;;0.20;;
21681;SDS011;11002;48.256;10.084;2022-10-15T10:25:32;1.88;;;0.30;;
21681;SDS011;11002;48.256;10.084;2022-10-15T10:28:04;0.68;;;0.10;;
21681;SDS011;11002;48.256;10.084;2022-10-15T10:30:42;1.95;;;0.10;;
21681;SDS011;11002;48.256;10.084;2022-10-15T10:33:25;1.60;;;0.10;;
21681;SDS011;11002;48.256;10.084;2022-10-15T10:35:55;1.92;;;0.20;;
21681;SDS011;11002;48.256;10.084;2022-10-15T10:38:23;1.27;;;0.20;;
21681;SDS011;11002;48.256;10.084;2022-10-15T10:40:54;1.75;;;0.10;;
21681;SDS011;11002;48.256;10.084;2022-10-15T10:43:29;1.00;;;0.28;;
21681;SDS011;11002;48.256;10.084;2022-10-15T10:45:58;5.45;;;0.13;;
21681;SDS011;11002;48.256;10.084;2022-10-15T10:48:36;0.85;;;0.20;;
21681;SDS011;11002;48.256;10.084;2022-10-15T10:51:06;1.50;;;0.20;;
21681;SDS011;11002;48.256;10.084;2022-10-15T10:53:37;1.48;;;0.10;;
21681;SDS011;11002;48.256;10.084;2022-10-15T10:56:16;1.52;;;0.20;;
21681;SDS011;11002;48.256;10.084;2022-10-15T10:58:47;1.40;;;0.10;;
21681;SDS011;11002;48.256;10.084;2022-10-15T11:01:17;1.15;;;0.20;;
21681;SDS011;11002;48.256;10.084;2022-10-15T11:03:45;0.98;;;0.25;;
21681;SDS011;11002;48.256;10.084;2022-10-15T11:06:19;1.08;;;0.17;;
21681;SDS011;11002;48.256;10.084;2022-10-15T11:09:01;0.10;;;0.10;;
21681;SDS011;11002;48.256;10.084;2022-10-15T11:11:38;0.40;;;0.20;;
21681;SDS011;11002;48.256;10.084;2022-10-15T11:14:15;2.90;;;0.50;;
21681;SDS011;11002;48.256;10.084;2022-10-15T11:16:53;1.02;;;0.20;;
21681;SDS011;11002;48.256;10.084;2022-10-15T11:19:27;5.47;;;0.10;;
21681;SDS011;11002;48.256;10.084;2022-10-15T11:22:03;0.50;;;0.10;;
21681;SDS011;11002;48.256;10.084;2022-10-15T11:24:44;0.88;;;0.30;;
21681;SDS011;11002;48.256;10.084;2022-10-15T11:27:30;0.77;;;0.30;;
21681;SDS011;11002;48.256;10.084;2022-10-15T11:30:10;0.25;;;0.15;;
21681;SDS011;11002;48.256;10.084;2022-10-15T11:32:51;0.45;;;0.30;;
21681;SDS011;11002;48.256;10.084;2022-10-15T11:35:34;1.70;;;0.20;;
21681;SDS011;11002;48.256;10.084;2022-10-15T11:38:13;0.50;;;0.50;;
21681;SDS011;11002;48.256;10.084;2022-10-15T11:40:51;0.40;;;0.20;;
21681;SDS011;11002;48.256;10.084;2022-10-15T11:43:32;0.32;;;0.10;;
21681;SDS011;11002;48.256;10.084;2022-10-15T11:46:12;0.30;;;0.20;;
21681;SDS011;11002;48.256;10.084;2022-10-15T11:48:49;0.68;;;0.20;;
21681;SDS011;11002;48.256;10.084;2022-10-15T11:51:30;0.80;;;0.17;;
21681;SDS011;11002;48.256;10.084;2022-10-15T11:54:10;0.35;;;0.10;;
21681;SDS011;11002;48.256;10.084;2022-10-15T11:56:46;1.77;;;0.30;;
21681;SDS011;11002;48.256;10.084;2022-10-15T11:59:20;0.32;;;0.20;;
21681;SDS011;11002;48.256;10.084;2022-10-15T12:01:56;0.35;;;0.10;;
21681;SDS011;11002;48.256;10.084;2022-10-15T12:04:28;0.10;;;0.10;;
21681;SDS011;11002;48.256;10.084;2022-10-15T12:07:00;0.20;;;0.20;;
21681;SDS011;11002;48.256;10.084;2022-10-15T12:09:30;0.20;;;0.20;;
21681;SDS011;11002;48.256;10.084;2022-10-15T12:12:03;1.95;;;0.20;;
21681;SDS011;11002;48.256;10.084;2022-10-15T12:14:37;0.30;;;0.10;;
21681;SDS011;11002;48.256;10.084;2022-10-15T12:17:10;1.58;;;0.22;;
21681;SDS011;11002;48.256;10.084;2022-10-15T12:19:47;1.33;;;0.20;;
21681;SDS011;11002;48.256;10.084;2022-10-15T12:22:31;0.10;;;0.10;;
21681;SDS011;11002;48.256;10.084;2022-10-15T12:25:02;0.10;;;0.10;;
21681;SDS011;11002;48.256;10.084;2022-10-15T12:27:32;0.38;;;0.20;;
21681;SDS011;11002;48.256;10.084;2022-10-15T12:30:18;0.10;;;0.10;;
21681;SDS011;11002;48.256;10.084;2022-10-15T12:32:48;0.08;;;0.08;;
21681;SDS011;11002;48.256;10.084;2022-10-15T12:35:20;0.40;;;0.10;;
21681;SDS011;11002;48.256;10.084;2022-10-15T12:37:57;0.10;;;0.10;;
21681;SDS011;11002;48.256;10.084;2022-10-15T12:40:44;0.32;;;0.10;;
21681;SDS011;11002;48.256;10.084;2022-10-15T12:43:12;0.80;;;0.10;;
21681;SDS011;11002;48.256;10.084;2022-10-15T12:45:51;0.10;;;0.10;;
21681;SDS011;11002;48.256;10.084;2022-10-15T12:48:26;0.17;;;0.10;;
21681;SDS011;11002;48.256;10.084;2022-10-15T12:53:59;0.30;;;0.20;;
21681;SDS011;11002;48.256;10.084;2022-10-15T12:56:37;0.38;;;0.22;;
21681;SDS011;11002;48.256;10.084;2022-10-15T13:02:02;0.10;;;0.10;;
21681;SDS011;11002;48.256;10.084;2022-10-15T13:04:53;0.10;;;0.10;;
21681;SDS011;11002;48.256;10.084;2022-10-15T13:07:20;0.30;;;0.10;;
21681;SDS011;11002;48.256;10.084;2022-10-15T13:09:48;0.60;;;0.20;;
21681;SDS011;11002;48.256;10.084;2022-10-15T13:14:53;0.10;;;0.10;;
21681;SDS011;11002;48.256;10.084;2022-10-15T13:17:24;0.63;;;0.28;;
21681;SDS011;11002;48.256;10.084;2022-10-15T13:19:53;0.15;;;0.15;;
21681;SDS011;11002;48.256;10.084;2022-10-15T13:22:24;0.10;;;0.10;;
21681;SDS011;11002;48.256;10.084;2022-10-15T13:24:53;0.10;;;0.10;;
21681;SDS011;11002;48.256;10.084;2022-10-15T13:27:22;0.20;;;0.20;;
21681;SDS011;11002;48.256;10.084;2022-10-15T13:29:55;0.52;;;0.10;;
21681;SDS011;11002;48.256;10.084;2022-10-15T13:32:25;0.20;;;0.15;;
21681;SDS011;11002;48.256;10.084;2022-10-15T13:34:54;0.10;;;0.10;;
21681;SDS011;11002;48.256;10.084;2022-10-15T13:37:25;0.82;;;0.17;;
21681;SDS011;11002;48.256;10.084;2022-10-15T13:39:56;0.10;;;0.10;;
21681;SDS011;11002;48.256;10.084;2022-10-15T13:42:25;0.10;;;0.10;;
21681;SDS011;11002;48.256;10.084;2022-10-15T13:44:57;0.05;;;0.00;;
21681;SDS011;11002;48.256;10.084;2022-10-15T13:47:29;0.20;;;0.10;;
21681;SDS011;11002;48.256;10.084;2022-10-15T13:50:11;0.13;;;0.13;;
21681;SDS011;11002;48.256;10.084;2022-10-15T13:52:42;0.38;;;0.20;;
21681;SDS011;11002;48.256;10.084;2022-10-15T13:55:18;0.15;;;0.08;;
21681;SDS011;11002;48.256;10.084;2022-10-15T13:57:49;0.10;;;0.10;;
21681;SDS011;11002;48.256;10.084;2022-10-15T14:00:22;0.15;;;0.05;;
21681;SDS011;11002;48.256;10.084;2022-10-15T14:05:44;0.00;;;0.00;;
21681;SDS011;11002;48.256;10.084;2022-10-15T14:08:14;0.00;;;0.00;;
21681;SDS011;11002;48.256;10.084;2022-10-15T14:10:42;0.30;;;0.13;;
21681;SDS011;11002;48.256;10.084;2022-10-15T14:13:10;0.17;;;0.10;;
21681;SDS011;11002;48.256;10.084;2022-10-15T14:15:41;0.40;;;0.10;;
21681;SDS011;11002;48.256;10.084;2022-10-15T14:18:10;0.38;;;0.10;;
21681;SDS011;11002;48.256;10.084;2022-10-15T14:20:43;0.10;;;0.10;;
21681;SDS011;11002;48.256;10.084;2022-10-15T14:23:15;0.20;;;0.10;;
21681;SDS011;11002;48.256;10.084;2022-10-15T14:25:50;0.20;;;0.10;;
21681;SDS011;11002;48.256;10.084;2022-10-15T14:28:19;0.30;;;0.30;;
21681;SDS011;11002;48.256;10.084;2022-10-15T14:30:48;0.00;;;0.00;;
21681;SDS011;11002;48.256;10.084;2022-10-15T14:33:29;0.05;;;0.00;;
21681;SDS011;11002;48.256;10.084;2022-10-15T14:36:05;0.03;;;0.03;;
21681;SDS011;11002;48.256;10.084;2022-10-15T14:38:35;0.10;;;0.00;;
21681;SDS011;11002;48.256;10.084;2022-10-15T14:41:03;0.10;;;0.10;;
21681;SDS011;11002;48.256;10.084;2022-10-15T14:43:34;0.22;;;0.10;;
21681;SDS011;11002;48.256;10.084;2022-10-15T14:46:03;0.43;;;0.10;;
21681;SDS011;11002;48.256;10.084;2022-10-15T14:48:33;0.38;;;0.10;;
21681;SDS011;11002;48.256;10.084;2022-10-15T14:51:03;0.15;;;0.15;;
21681;SDS011;11002;48.256;10.084;2022-10-15T14:53:34;0.10;;;0.00;;
21681;SDS011;11002;48.256;10.084;2022-10-15T14:56:04;0.10;;;0.10;;
21681;SDS011;11002;48.256;10.084;2022-10-15T14:58:35;0.25;;;0.10;;
21681;SDS011;11002;48.256;10.084;2022-10-15T15:01:04;0.10;;;0.10;;
21681;SDS011;11002;48.256;10.084;2022-10-15T15:03:37;0.00;;;0.00;;
21681;SDS011;11002;48.256;10.084;2022-10-15T15:06:08;0.10;;;0.10;;
21681;SDS011;11002;48.256;10.084;2022-10-15T15:08:35;0.17;;;0.05;;
21681;SDS011;11002;48.256;10.084;2022-10-15T15:11:03;0.10;;;0.05;;
21681;SDS011;11002;48.256;10.084;2022-10-15T15:13:35;0.10;;;0.10;;
21681;SDS011;11002;48.256;10.084;2022-10-15T15:16:04;0.10;;;0.10;;